Durango, CO

3:03 AM MDT on September 21, 2014 (GMT -0600)
Cortez Municipal | Change Station
CLOSE
Current Station
Airport
Location: Cortez,
Elevation: 5915 ft
Nearby Weather Stations
Active Advisory: Special Statement

Elev 5915 ft 37.31 °N, 108.63 °W | Updated 10 minutes ago

Thunderstorm
Thunderstorm
60 °F
Feels Like 60 °F
N
14
Wind Variable Wind from NE

Today
High -- | Low -- °F
--% Chance of Precip.
Yesterday
High -- | Low -- °F
Precip. -- in
6:58 AM 7:09 PM
Waning Crescent, 8% visible
Pressure 30.02 in
Visibility 7.0 miles
Clouds Overcast 8000 ft
Dew Point 56 °F
Humidity 86%
Rainfall 0.12 in
Snow Depth Not available.
UV 0 out of 12
Pollen 6.30 out of 12
Air Quality Not available.
Flu Activity Not available.
METAR KCEZ 210853Z AUTO 04012KT 7SM RA OVC080 16/13 A3027 RMK AO2 LTG DSNT E RAE12B44 TSE0757 SLP166 P0002 60012 T01560133 53026

More Conditions Fewer Conditions

Pressure 30.02 in
Visibility 7.0 miles
Clouds Overcast 8000 ft
Dew Point 56 °F
Humidity 86%
Rainfall 0.12 in
Snow Depth Not available.
UV 0 out of 12
Pollen 6.30 out of 12
Air Quality Not available.
Flu Activity Not available.
METAR KCEZ 210853Z AUTO 04012KT 7SM RA OVC080 16/13 A3027 RMK AO2 LTG DSNT E RAE12B44 TSE0757 SLP166 P0002 60012 T01560133 53026

More Conditions Fewer Conditions

10-Day Weather Forecast

Almanac

Astronomy

Sep. 21, 2014 Rise Set
Actual Time 6:58 AM MDT 7:09 PM MDT
Civil Twilight 6:32 AM MDT 7:35 PM MDT
Nautical Twilight 6:01 AM MDT 8:06 PM MDT
Astronomical Twilight 5:30 AM MDT 8:36 PM MDT
Moon 4:37 AM MDT 5:45 PM MDT
Length of Visible Light 13h 03m
Length of Day
12h 11m
Tomorrow will be 2m 22s shorter.
Waning Crescent, 8% of the Moon is Illuminated
Today
Waning Crescent
Sep 24
New
Oct 1
First Quarter
Oct 8
Full
Oct 15
Last Quarter

Today's Extremes

State Highs State Lows

Community

WunderPhotos

Upload Photos

1,755,100 photos uploaded!

Nearby

Snow Depth

Station Depth Elevation
Ivanhoe 0 in 10400 ft
Grizzly Peak 0 in 11100 ft
Cumbres Trestle 0 in 10020 ft
Lost Dog 0 in 9320 ft
Jackwhacker Gulch 0 in 10960 ft

Earthquake Activity

City Distance Mag. Time & Date
No recent earthquake activity has been reported nearby.
Minimum magnitude displayed is 2.5.

Coastal Water Temperatures

Place Temperature
No Stations Reporting

Nearby Weather Stations